05:01
Airports
History
Links
Donate
Help keep this website running!
PayPal
Bitcoin
This page is community maintained. The information is intended for PC simulator navigation or reference.
Always use approved charts for navigation.
22V
Chenoweth
Chenoweth (22V)
Woodrow, Colorado, United States (80757)
4
Lat/Lng:39° 49' 59.95" N / 103° 35' 22.81" W
39.833319 / -103.589669
Elevation:4697'ft / 1432mMSL
ID / ICAO:22V
Runways:1
Longest:16-34
Grass 853m / 2,799ft
Nearby Weather04:53 GMT 2018-01-21
Nearby weather at KAKO, Colorado Plains Rgnl located 30.6 nautical miles from 22V
Altimeter: 29.81
Visibility: 10.0 statute miles
Wind: 13 knots (from 060°)
Temp: -2°c / 28°f
Humidity: 92.8%

METAR: KAKO 210453Z AUTO 06013G18KT 10SM SCT009 OVC018 M02/M03 A2981 RMK AO2 SLP107 T10171028

(Powered by phpweather)
Nearby VORs <50NM
Nearby NDBs
Runway 16 / 34
Dimensions:853 x 6.1m 2799' x 20'ft
Surface:Grass
Runway 16 [A]Runway 34 [B]
Heading:170°TH 350°TH
Lat:
Lng:
39° 50' 13.6"N
103° 35' 25.62"W
39° 49' 46.29"N
103° 35' 19.99"W
User Notes and Comments
39° 49' 59.95" N / 103° 35' 22.81" W
Distance To
Airport ID:
Nearby Airports
4 Decker Farms 15.4 NM
CO94 SE 124°
(R) Bijou Basin 28.9 NM
CD17 W 280°
(U) Brush Muni 29.8 NM
7V5 N
4 Singleton Ranch 30.0 NM
68CO W 275°
(U) Colorado Plains Rgnl 30.6 NM
KAKO ( WX ) NE 39°
(R) Sky Haven 33.1 NM
CO17 WSW 255°
(R) Kent 35.8 NM
8CO0 NW 323°
VFR Chart
Flight Planning at SkyVector.com